Meteorología y climatología de Navarra
Datos de la estación - Meteo Navarra

Estación de Erremendia (Salazar) GN

Altitud 1047 m.


Datos desde el 15/02/2020 hasta el 16/02/2020 en horario solar
Los datos son PROVISIONALES

Anterior Página 1 de 1 Siguiente Descargar: Formato para Excel 2000 o superior   Formato csv   Formato para OpenOffice Calc
Fecha Temperatura Humedad relativa Radiación global Insolación Precipitación Vel. viento 10 m Vel. viento 10 m Dir. viento 10 m
ºC % W/m² s l/m² m/s km/h º
15/02/2020 0:00 -2.4 96 0.0 0 0.0 0.8 2.8 80
15/02/2020 0:10 -2.9 96 0.0 0 0.0 0.4 1.3 83
15/02/2020 0:20 -2.8 96 0.0 0 0.0 0.1 0.4 81
15/02/2020 0:30 -2.8 96 0.0 0 0.0 0.8 3.0 67
15/02/2020 0:40 -2.5 96 0.0 0 0.0 0.6 2.2 80
15/02/2020 0:50 -2.7 96 0.0 0 0.0 0.3 0.9 83
15/02/2020 1:00 -2.9 96 0.0 0 0.0 0.1 0.3 84
15/02/2020 1:10 -2.8 96 0.0 0 0.0 0.3 0.9 52
15/02/2020 1:20 -2.9 96 0.0 0 0.0 0.5 1.6 72
15/02/2020 1:30 -2.9 96 0.0 0 0.0 0.1 0.3 83
15/02/2020 1:40 -3.0 96 0.0 0 0.0 0.0 0.1 83
15/02/2020 1:50 -3.1 96 0.0 0 0.0 0.1 0.5 38
15/02/2020 2:00 -3.1 96 0.0 0 0.0 0.1 0.3 262
15/02/2020 2:10 -2.9 96 0.0 0 0.0 0.1 0.5 62
15/02/2020 2:20 -2.7 96 0.0 0 0.0 0.2 0.8 328
15/02/2020 2:30 -2.6 96 0.0 0 0.0 0.1 0.5 170
15/02/2020 2:40 -2.6 96 0.0 0 0.0 0.1 0.2 144
15/02/2020 2:50 -2.6 96 0.0 0 0.0 0.4 1.3 248
15/02/2020 3:00 -2.6 96 0.0 0 0.0 0.1 0.5 79
15/02/2020 3:10 -2.6 96 0.0 0 0.0 0.3 0.9 245
15/02/2020 3:20 -3.0 96 0.0 0 0.0 0.3 1.2 228
15/02/2020 3:30 -3.0 96 0.0 0 0.0 0.3 1.1 178
15/02/2020 3:40 -3.1 96 0.0 0 0.0 0.0 0.1 66
15/02/2020 3:50 -2.9 96 0.0 0 0.0 0.6 2.1 72
15/02/2020 4:00 -2.8 97 0.0 0 0.0 1.1 3.9 76
15/02/2020 4:10 -1.9 97 0.0 0 0.0 1.6 5.7 104
15/02/2020 4:20 -0.9 97 0.0 0 0.0 1.0 3.7 223
15/02/2020 4:30 -1.4 97 0.0 0 0.0 0.5 1.9 294
15/02/2020 4:40 -1.6 96 0.0 0 0.0 0.6 2.0 198
15/02/2020 4:50 -1.7 96 0.0 0 0.0 0.8 2.8 253
15/02/2020 5:00 -1.8 96 0.0 0 0.0 0.5 1.7 218
15/02/2020 5:10 -2.1 96 0.0 0 0.0 0.7 2.3 351
15/02/2020 5:20 -1.9 97 0.0 0 0.0 0.6 2.1 75
15/02/2020 5:30 -1.7 97 0.0 0 0.0 1.1 3.9 66
15/02/2020 5:40 -2.1 97 0.0 0 0.0 0.1 0.2 81
15/02/2020 5:50 -2.4 96 0.0 0 0.0 0.1 0.3 84
15/02/2020 6:00 -2.5 96 0.0 0 0.0 0.1 0.3 84
15/02/2020 6:10 -2.6 96 0.0 0 0.0 0.0 0.1 84
15/02/2020 6:20 -2.6 96 0.0 0 0.0 0.0 0.1 83
15/02/2020 6:30 -2.8 96 0.0 0 0.0 0.0 0.0 0
15/02/2020 6:40 -2.8 97 0.0 0 0.0 0.5 1.7 296
15/02/2020 6:50 -2.6 97 0.0 0 0.0 0.2 0.7 90
15/02/2020 7:00 -2.3 97 0.0 0 0.0 0.4 1.4 116
15/02/2020 7:10 -2.0 97 0.0 0 0.0 0.6 2.0 81
15/02/2020 7:20 -2.3 97 0.0 0 0.0 0.2 0.6 79
15/02/2020 7:30 -2.3 97 5.1 0 0.0 0.1 0.3 82
15/02/2020 7:40 -1.8 97 26.6 40 0.0 0.8 3.0 78
15/02/2020 7:50 -0.7 97 86.6 600 0.0 1.6 5.7 62
15/02/2020 8:00 2.0 98 113.5 600 0.0 0.8 3.0 69
15/02/2020 8:10 2.3 97 139.3 600 0.0 0.4 1.4 67
15/02/2020 8:20 3.3 96 165.9 600 0.0 0.6 2.2 71
15/02/2020 8:30 4.3 95 192.3 600 0.0 0.2 0.5 84
15/02/2020 8:40 5.2 93 222.3 600 0.0 0.6 2.2 44
15/02/2020 8:50 7.4 81 249.4 600 0.0 3.2 11.3 66
15/02/2020 9:00 8.8 73 281.5 600 0.0 2.6 9.5 71
15/02/2020 9:10 9.2 70 306.1 600 0.0 3.5 12.4 76
15/02/2020 9:20 9.5 68 336.3 600 0.0 2.3 8.1 76
15/02/2020 9:30 10.4 66 361.6 600 0.0 1.8 6.5 82
15/02/2020 9:40 10.8 63 383.4 600 0.0 2.3 8.2 106
15/02/2020 9:50 11.4 61 405.9 600 0.0 1.4 4.9 105
15/02/2020 10:00 12.1 59 424.4 600 0.0 0.6 2.1 72
15/02/2020 10:10 11.8 59 440.1 600 0.0 1.7 6.2 138
15/02/2020 10:20 12.0 59 459.8 600 0.0 2.0 7.3 90
15/02/2020 10:30 12.2 59 479.6 600 0.0 1.5 5.4 110
15/02/2020 10:40 12.6 56 496.6 600 0.0 1.4 5.1 157
15/02/2020 10:50 12.5 56 510.0 600 0.0 3.5 12.6 190
15/02/2020 11:00 12.4 56 528.0 600 0.0 2.3 8.1 162
15/02/2020 11:10 12.6 57 539.2 600 0.0 3.6 12.9 190
15/02/2020 11:20 12.5 58 554.4 600 0.0 3.3 11.9 180
15/02/2020 11:30 12.5 57 565.0 600 0.0 3.5 12.5 167
15/02/2020 11:40 12.6 58 576.1 600 0.0 2.9 10.3 177
15/02/2020 11:50 12.6 58 584.6 600 0.0 3.3 11.7 182
15/02/2020 12:00 12.6 58 591.1 600 0.0 4.0 14.4 183
15/02/2020 12:10 12.6 58 596.9 600 0.0 4.1 14.7 188
15/02/2020 12:20 12.8 58 594.8 600 0.0 4.0 14.3 194
15/02/2020 12:30 12.8 57 594.2 600 0.0 3.8 13.7 190
15/02/2020 12:40 13.0 56 601.1 600 0.0 3.7 13.2 197
15/02/2020 12:50 13.2 56 599.1 600 0.0 3.7 13.4 192
15/02/2020 13:00 13.2 56 566.8 600 0.0 4.2 15.0 198
15/02/2020 13:10 13.1 56 512.3 600 0.0 4.0 14.3 187
15/02/2020 13:20 13.3 56 536.0 600 0.0 3.6 12.9 191
15/02/2020 13:30 13.5 54 522.4 600 0.0 3.3 11.9 156
15/02/2020 13:40 13.7 53 510.0 600 0.0 2.6 9.4 156
15/02/2020 13:50 13.7 55 437.3 600 0.0 2.9 10.4 173
15/02/2020 14:00 13.5 57 422.6 594 0.0 3.2 11.4 200
15/02/2020 14:10 13.4 58 434.6 600 0.0 2.9 10.6 221
15/02/2020 14:20 13.1 60 331.4 600 0.0 3.3 11.8 195
15/02/2020 14:30 12.6 60 302.3 600 0.0 3.6 12.9 190
15/02/2020 14:40 12.6 63 298.4 600 0.0 2.9 10.4 213
15/02/2020 14:50 12.0 67 225.8 120 0.0 2.7 9.8 225
15/02/2020 15:00 11.6 70 221.2 384 0.0 2.5 8.8 218
15/02/2020 15:10 11.4 71 216.5 522 0.0 2.2 7.9 203
15/02/2020 15:20 11.4 71 191.8 160 0.0 2.7 9.7 174
15/02/2020 15:30 11.4 70 170.3 0 0.0 1.9 6.8 186
15/02/2020 15:40 11.4 70 148.8 0 0.0 1.5 5.4 192
15/02/2020 15:50 11.4 70 122.0 0 0.0 2.1 7.6 192
15/02/2020 16:00 11.2 71 95.5 0 0.0 2.8 10.0 163
15/02/2020 16:10 11.0 72 81.6 0 0.0 1.3 4.6 198
15/02/2020 16:20 10.9 71 65.9 0 0.0 2.4 8.7 181
15/02/2020 16:30 10.9 70 62.4 0 0.0 1.7 5.9 170
15/02/2020 16:40 10.8 69 54.8 0 0.0 1.0 3.7 130
15/02/2020 16:50 10.7 68 47.3 0 0.0 1.2 4.4 128
15/02/2020 17:00 10.7 67 34.5 0 0.0 1.3 4.6 169
15/02/2020 17:10 10.6 65 20.9 0 0.0 1.3 4.6 72
15/02/2020 17:20 10.7 61 1.6 0 0.0 1.2 4.3 113
15/02/2020 17:30 10.7 59 0.0 0 0.0 2.2 8.1 114
15/02/2020 17:40 11.1 55 0.0 0 0.0 2.1 7.7 131
15/02/2020 17:50 10.9 56 0.0 0 0.0 2.0 7.1 130
15/02/2020 18:00 10.5 57 0.0 0 0.0 2.4 8.7 105
15/02/2020 18:10 10.7 57 0.0 0 0.0 2.8 9.9 109
15/02/2020 18:20 10.8 57 0.0 0 0.0 3.3 11.8 104
15/02/2020 18:30 10.8 58 0.0 0 0.0 3.8 13.8 112
15/02/2020 18:40 10.8 58 0.0 0 0.0 3.4 12.2 115
15/02/2020 18:50 10.9 56 0.0 0 0.0 4.0 14.2 112
15/02/2020 19:00 11.1 55 0.0 0 0.0 4.3 15.4 109
15/02/2020 19:10 10.6 57 0.0 0 0.0 4.3 15.4 103
15/02/2020 19:20 10.5 58 0.0 0 0.0 4.2 15.0 111
15/02/2020 19:30 10.6 57 0.0 0 0.0 3.2 11.4 124
15/02/2020 19:40 10.7 56 0.0 0 0.0 3.2 11.6 120
15/02/2020 19:50 10.7 56 0.0 0 0.0 3.8 13.8 124
15/02/2020 20:00 10.8 56 0.0 0 0.0 3.6 12.8 135
15/02/2020 20:10 11.0 54 0.0 0 0.0 4.3 15.5 131
15/02/2020 20:20 10.7 56 0.0 0 0.0 2.6 9.3 104
15/02/2020 20:30 10.3 58 0.0 0 0.0 2.6 9.5 122
15/02/2020 20:40 10.2 58 0.0 0 0.0 2.1 7.6 113
15/02/2020 20:50 9.9 59 0.0 0 0.0 2.3 8.3 119
15/02/2020 21:00 10.0 59 0.0 0 0.0 2.8 9.9 112
15/02/2020 21:10 9.9 60 0.0 0 0.0 3.1 11.2 111
15/02/2020 21:20 9.5 60 0.0 0 0.0 1.8 6.4 110
15/02/2020 21:30 9.3 61 0.0 0 0.0 2.4 8.7 116
15/02/2020 21:40 9.3 60 0.0 0 0.0 2.2 8.0 120
15/02/2020 21:50 10.3 56 0.0 0 0.0 3.0 10.9 144
15/02/2020 22:00 10.5 55 0.0 0 0.0 2.9 10.3 147
15/02/2020 22:10 10.5 55 0.0 0 0.0 3.2 11.6 146
15/02/2020 22:20 10.4 55 0.0 0 0.0 2.1 7.7 144
15/02/2020 22:30 10.2 56 0.0 0 0.0 2.2 8.0 139
15/02/2020 22:40 10.1 58 0.0 0 0.0 2.0 7.0 124
15/02/2020 22:50 9.8 60 0.0 0 0.0 2.3 8.4 136
15/02/2020 23:00 10.3 59 0.0 0 0.0 3.4 12.2 134
15/02/2020 23:10 10.2 58 0.0 0 0.0 2.7 9.7 133
15/02/2020 23:20 10.1 59 0.0 0 0.0 2.5 9.1 137
15/02/2020 23:30 9.9 60 0.0 0 0.0 2.4 8.5 122
15/02/2020 23:40 9.9 60 0.0 0 0.0 2.5 8.9 131
15/02/2020 23:50 10.0 59 0.0 0 0.0 3.0 10.6 136
Anterior Página 1 de 1 Siguiente

NOTA: Tipo de datos según el color:
   - Valores diarios o 10 minutos correctos
   - Valores diarios calculados a partir de un número de datos 10 minutos menor que 144 y mayor que 120, o de un número de datos semihorarios menor que 48 y mayor que 40 (caso de las estaciones de INTIA y del Ministerio)
   - Valores diez minutos estimados


Contacto        Enlaces        Aviso legal